createdAt,value
2019-02-17T00:00:16.782Z,10.60
2019-02-17T00:01:16.769Z,10.60
2019-02-17T00:02:16.778Z,10.50
2019-02-17T00:03:17.029Z,11.00
2019-02-17T00:04:16.762Z,10.60
2019-02-17T00:05:16.750Z,10.90
2019-02-17T00:06:16.716Z,10.50
2019-02-17T00:07:17.183Z,10.60
2019-02-17T00:08:16.714Z,11.10
2019-02-17T00:09:16.692Z,11.00
2019-02-17T00:10:16.710Z,10.60
2019-02-17T00:11:16.997Z,10.60
2019-02-17T00:12:16.655Z,10.50
2019-02-17T00:13:16.818Z,11.10
2019-02-17T00:14:16.642Z,10.50
2019-02-17T00:15:16.626Z,11.00
2019-02-17T00:16:16.647Z,10.70
2019-02-17T00:17:17.078Z,10.70
2019-02-17T00:18:16.597Z,11.50
2019-02-17T00:19:16.587Z,10.90
2019-02-17T00:20:16.612Z,11.20
2019-02-17T00:21:16.568Z,10.80
2019-02-17T00:22:16.580Z,10.60
2019-02-17T00:23:16.934Z,11.20
2019-02-17T00:24:16.926Z,11.00
2019-02-17T00:25:16.536Z,10.50
2019-02-17T00:26:16.509Z,10.80
2019-02-17T00:27:16.502Z,10.70
2019-02-17T00:28:16.542Z,10.70
2019-02-17T00:29:16.491Z,10.40
2019-02-17T00:30:16.524Z,10.10
2019-02-17T00:31:16.464Z,10.10
2019-02-17T00:32:16.453Z,10.20
2019-02-17T00:33:16.439Z,10.50
2019-02-17T00:34:16.448Z,10.60
2019-02-17T00:35:16.439Z,10.20
2019-02-17T00:36:16.417Z,10.30
2019-02-17T00:37:16.399Z,10.80
2019-02-17T00:38:16.388Z,10.40
2019-02-17T00:39:16.395Z,10.40
2019-02-17T00:40:16.370Z,10.40
2019-02-17T00:41:16.382Z,10.90
2019-02-17T00:42:16.386Z,10.40
2019-02-17T00:43:16.382Z,10.80
2019-02-17T00:44:16.373Z,10.40
2019-02-17T00:45:16.313Z,10.50
2019-02-17T00:46:16.322Z,10.50
2019-02-17T00:47:16.304Z,10.50
2019-02-17T00:48:16.299Z,10.80
2019-02-17T00:49:16.299Z,10.60
2019-02-17T00:50:16.267Z,10.60
2019-02-17T00:51:16.270Z,10.90
2019-02-17T00:52:16.247Z,10.60
2019-02-17T00:53:16.239Z,11.00
2019-02-17T00:54:16.227Z,10.70
2019-02-17T00:55:16.216Z,10.90
2019-02-17T00:56:16.402Z,10.50
2019-02-17T00:57:16.195Z,10.90
2019-02-17T00:58:16.181Z,10.70
2019-02-17T00:59:16.221Z,10.50
2019-02-17T01:00:16.169Z,11.10
2019-02-17T01:01:16.178Z,10.80
2019-02-17T01:02:16.148Z,10.30
2019-02-17T01:03:16.144Z,10.60
2019-02-17T01:04:16.121Z,10.90
2019-02-17T01:05:16.116Z,10.30
2019-02-17T01:06:16.125Z,10.50
2019-02-17T01:07:16.116Z,10.90
2019-02-17T01:08:16.078Z,10.70
2019-02-17T01:09:16.069Z,10.40
2019-02-17T01:10:16.059Z,10.60
2019-02-17T01:11:16.071Z,10.50
2019-02-17T01:12:16.045Z,9.90
2019-02-17T01:13:16.036Z,10.40
2019-02-17T01:14:16.026Z,10.60
2019-02-17T01:15:16.015Z,11.20
2019-02-17T01:16:16.024Z,11.00
2019-02-17T01:17:16.043Z,11.90
2019-02-17T01:18:16.000Z,12.10
2019-02-17T01:19:15.970Z,12.30
2019-02-17T01:20:16.049Z,12.10
2019-02-17T01:21:15.958Z,12.40
2019-02-17T01:22:15.940Z,14.00
2019-02-17T01:23:15.926Z,13.10
2019-02-17T01:24:15.922Z,12.90
2019-02-17T01:25:15.929Z,11.70
2019-02-17T01:26:16.183Z,12.50
2019-02-17T01:27:15.893Z,12.40
2019-02-17T01:28:15.896Z,12.00
2019-02-17T01:29:20.305Z,11.70
2019-02-17T01:30:16.856Z,12.10
2019-02-17T01:31:15.862Z,12.00
2019-02-17T01:32:15.844Z,11.30
2019-02-17T01:33:15.830Z,10.80
2019-02-17T01:34:15.819Z,11.40
2019-02-17T01:35:15.822Z,11.20
2019-02-17T01:36:15.826Z,11.50
2019-02-17T01:37:15.786Z,10.70
2019-02-17T01:38:15.783Z,10.70
2019-02-17T01:39:15.769Z,10.80
2019-02-17T01:40:15.754Z,11.10
2019-02-17T01:41:15.764Z,10.90
2019-02-17T01:42:15.776Z,10.60
2019-02-17T01:43:15.720Z,10.60
2019-02-17T01:44:15.741Z,10.90
2019-02-17T01:45:15.705Z,10.90
2019-02-17T01:46:15.695Z,11.10
2019-02-17T01:47:15.707Z,10.60
2019-02-17T01:48:15.685Z,10.70
2019-02-17T01:49:15.655Z,10.50
2019-02-17T01:50:15.647Z,10.60
2019-02-17T01:51:15.635Z,10.50
2019-02-17T01:52:15.630Z,10.20
2019-02-17T01:53:15.638Z,10.00
2019-02-17T01:54:15.603Z,10.10
2019-02-17T01:55:15.605Z,10.30
2019-02-17T01:56:15.591Z,10.30
2019-02-17T01:57:15.579Z,10.20
2019-02-17T01:58:15.586Z,10.30
2019-02-17T01:59:15.559Z,10.60
2019-02-17T02:00:15.540Z,10.20
2019-02-17T02:01:17.096Z,10.00
2019-02-17T02:02:15.587Z,10.00
2019-02-17T02:03:15.534Z,9.80
2019-02-17T02:04:15.509Z,10.20
2019-02-17T02:05:15.493Z,10.50
2019-02-17T02:06:15.483Z,10.40
2019-02-17T02:07:15.473Z,10.40
2019-02-17T02:08:15.456Z,10.30
2019-02-17T02:09:15.468Z,10.30
2019-02-17T02:10:15.447Z,9.80
2019-02-17T02:11:15.431Z,9.80
2019-02-17T02:12:15.415Z,10.40
2019-02-17T02:13:15.402Z,9.80
2019-02-17T02:14:15.412Z,10.50
2019-02-17T02:15:15.386Z,10.20
2019-02-17T02:16:15.378Z,10.00
2019-02-17T02:17:15.368Z,9.80
2019-02-17T02:18:15.377Z,9.90
2019-02-17T02:19:15.367Z,10.30
2019-02-17T02:20:15.334Z,9.90
2019-02-17T02:21:15.322Z,9.90
2019-02-17T02:22:15.314Z,10.10
2019-02-17T02:23:15.299Z,9.60
2019-02-17T02:24:15.314Z,10.20
2019-02-17T02:25:15.286Z,10.10
2019-02-17T02:26:15.269Z,9.90
2019-02-17T02:27:15.257Z,10.80
2019-02-17T02:28:15.254Z,10.10
2019-02-17T02:29:15.260Z,9.70
2019-02-17T02:30:15.237Z,10.00
2019-02-17T02:31:15.222Z,10.00
2019-02-17T02:32:15.207Z,10.70
2019-02-17T02:33:15.192Z,10.40
2019-02-17T02:34:15.202Z,10.10
2019-02-17T02:35:15.176Z,9.80
2019-02-17T02:36:15.187Z,10.60
2019-02-17T02:37:15.158Z,10.30
2019-02-17T02:38:15.152Z,10.20
2019-02-17T02:39:15.166Z,10.80
2019-02-17T02:40:15.119Z,10.20
2019-02-17T02:41:15.108Z,9.90
2019-02-17T02:42:15.106Z,10.70
2019-02-17T02:43:15.094Z,10.40
2019-02-17T02:44:15.098Z,10.60
2019-02-17T02:45:15.070Z,10.00
2019-02-17T02:46:15.057Z,10.20
2019-02-17T02:47:15.051Z,10.40
2019-02-17T02:48:15.045Z,10.30
2019-02-17T02:49:15.056Z,9.50
2019-02-17T02:50:15.021Z,10.30
2019-02-17T02:51:15.040Z,9.60
2019-02-17T02:52:14.996Z,10.10
2019-02-17T02:53:14.986Z,9.50
2019-02-17T02:54:14.993Z,9.60
2019-02-17T02:55:14.965Z,10.20
2019-02-17T02:56:14.959Z,10.10
2019-02-17T02:57:14.948Z,9.50
2019-02-17T02:58:14.930Z,9.70
2019-02-17T02:59:14.938Z,9.90
2019-02-17T03:00:14.917Z,9.80
2019-02-17T03:01:14.907Z,9.50
2019-02-17T03:02:14.893Z,9.70
2019-02-17T03:03:14.883Z,9.40
2019-02-17T03:04:14.892Z,9.70
2019-02-17T03:05:14.864Z,10.00
2019-02-17T03:06:14.845Z,9.80
2019-02-17T03:07:14.836Z,9.80
2019-02-17T03:08:14.833Z,10.10
2019-02-17T03:09:14.847Z,10.10
2019-02-17T03:10:14.813Z,9.90
2019-02-17T03:11:14.801Z,10.00
2019-02-17T03:12:14.783Z,10.10
2019-02-17T03:13:14.772Z,9.60
2019-02-17T03:14:14.804Z,9.80
2019-02-17T03:15:14.760Z,9.90
2019-02-17T03:16:14.742Z,10.00
2019-02-17T03:17:15.732Z,10.30
2019-02-17T03:18:14.720Z,9.80
2019-02-17T03:19:14.711Z,9.90
2019-02-17T03:20:14.726Z,9.50
2019-02-17T03:21:14.699Z,9.90
2019-02-17T03:22:14.692Z,10.00
2019-02-17T03:23:14.672Z,9.70
2019-02-17T03:24:14.681Z,9.60
2019-02-17T03:25:14.670Z,9.50
2019-02-17T03:26:14.639Z,9.50
2019-02-17T03:27:14.630Z,10.10
2019-02-17T03:28:14.620Z,10.40
2019-02-17T03:29:14.612Z,10.00
2019-02-17T03:30:14.625Z,10.00
2019-02-17T03:31:14.607Z,9.70
2019-02-17T03:32:14.581Z,9.50
2019-02-17T03:33:14.572Z,10.00
2019-02-17T03:34:14.569Z,9.60
2019-02-17T03:35:14.548Z,9.80
2019-02-17T03:36:14.609Z,9.30
2019-02-17T03:37:14.525Z,10.00
2019-02-17T03:38:14.510Z,9.50
2019-02-17T03:39:14.499Z,9.80
2019-02-17T03:40:14.495Z,9.60
2019-02-17T03:41:14.926Z,9.90
2019-02-17T03:42:14.477Z,9.50
2019-02-17T03:43:14.464Z,9.90
2019-02-17T03:44:14.447Z,9.30
2019-02-17T03:45:14.438Z,9.20
2019-02-17T03:46:14.461Z,9.40
2019-02-17T03:47:14.432Z,10.10
2019-02-17T03:48:14.404Z,10.20
2019-02-17T03:49:14.393Z,9.60
2019-02-17T03:50:14.383Z,10.20
2019-02-17T03:51:14.373Z,9.70
2019-02-17T03:52:14.417Z,9.70
2019-02-17T03:53:14.360Z,9.90
2019-02-17T03:54:14.354Z,9.50
2019-02-17T03:55:14.343Z,9.50
2019-02-17T03:56:14.323Z,9.90
2019-02-17T03:57:14.315Z,10.30
2019-02-17T03:58:14.335Z,9.90
2019-02-17T03:59:14.290Z,9.80
2019-02-17T04:00:17.288Z,10.00
2019-02-17T04:01:14.276Z,9.90
2019-02-17T04:02:14.264Z,9.90
2019-02-17T04:03:14.245Z,9.80
2019-02-17T04:04:14.280Z,10.20
2019-02-17T04:05:14.232Z,9.90
2019-02-17T04:06:14.225Z,9.90
2019-02-17T04:07:14.247Z,9.70
2019-02-17T04:08:14.198Z,9.70
2019-02-17T04:09:14.188Z,10.10
2019-02-17T04:10:14.202Z,9.90
2019-02-17T04:11:14.238Z,9.60
2019-02-17T04:12:14.160Z,10.10
2019-02-17T04:13:14.178Z,9.70
2019-02-17T04:14:14.143Z,9.70
2019-02-17T04:15:14.128Z,10.30
2019-02-17T04:16:14.113Z,9.50
2019-02-17T04:17:14.108Z,9.90
2019-02-17T04:18:14.098Z,9.90
2019-02-17T04:19:14.106Z,9.90
2019-02-17T04:20:14.067Z,10.00
2019-02-17T04:21:14.058Z,9.80
2019-02-17T04:22:14.049Z,10.20
2019-02-17T04:23:14.039Z,9.70
2019-02-17T04:24:14.054Z,9.80
2019-02-17T04:25:14.028Z,10.30
2019-02-17T04:26:14.006Z,9.50
2019-02-17T04:27:14.003Z,9.80
2019-02-17T04:28:14.009Z,10.00
2019-02-17T04:29:13.981Z,9.50
2019-02-17T04:30:13.970Z,9.90
2019-02-17T04:31:13.960Z,10.00
2019-02-17T04:32:13.943Z,10.40
2019-02-17T04:33:13.953Z,10.10
2019-02-17T04:34:13.929Z,10.30
2019-02-17T04:35:14.006Z,10.00
2019-02-17T04:36:13.902Z,9.70
2019-02-17T04:37:13.896Z,9.90
2019-02-17T04:38:13.899Z,9.80
2019-02-17T04:39:13.871Z,9.60
2019-02-17T04:40:13.864Z,10.40
2019-02-17T04:41:13.855Z,9.90
2019-02-17T04:42:13.846Z,9.80
2019-02-17T04:43:13.858Z,10.10
2019-02-17T04:44:13.814Z,10.40
2019-02-17T04:45:13.806Z,10.20
2019-02-17T04:46:13.794Z,10.10
2019-02-17T04:47:13.791Z,10.00
2019-02-17T04:48:13.802Z,10.50
2019-02-17T04:49:13.770Z,9.60
2019-02-17T04:50:13.756Z,10.40
2019-02-17T04:51:13.743Z,9.40
2019-02-17T04:52:13.738Z,9.40
2019-02-17T04:53:13.765Z,9.90
2019-02-17T04:54:13.717Z,9.30
2019-02-17T04:55:13.711Z,9.60
2019-02-17T04:56:13.688Z,9.90
2019-02-17T04:57:13.682Z,9.70
2019-02-17T04:58:13.692Z,10.30
2019-02-17T04:59:13.659Z,10.00
2019-02-17T05:00:13.655Z,9.70
2019-02-17T05:01:13.648Z,10.30
2019-02-17T05:02:13.635Z,9.60
2019-02-17T05:03:13.642Z,10.00
2019-02-17T05:04:13.609Z,9.50
2019-02-17T05:05:13.597Z,9.90
2019-02-17T05:06:13.595Z,9.50
2019-02-17T05:07:13.580Z,9.90
2019-02-17T05:08:13.588Z,9.70
2019-02-17T05:09:13.554Z,9.90
2019-02-17T05:10:13.548Z,10.20
2019-02-17T05:11:13.534Z,10.00
2019-02-17T05:12:13.531Z,10.20
2019-02-17T05:13:13.538Z,9.70
2019-02-17T05:14:13.508Z,10.00
2019-02-17T05:15:13.498Z,10.10
2019-02-17T05:16:13.482Z,10.50
2019-02-17T05:17:13.472Z,10.70
2019-02-17T05:18:13.496Z,10.00
2019-02-17T05:19:13.448Z,9.70
2019-02-17T05:20:13.446Z,10.00
2019-02-17T05:21:13.437Z,10.00
2019-02-17T05:22:13.420Z,10.10
2019-02-17T05:23:13.409Z,9.60
2019-02-17T05:24:13.422Z,9.60
2019-02-17T05:25:13.392Z,9.70
2019-02-17T05:26:13.402Z,9.90
2019-02-17T05:27:13.376Z,10.00
2019-02-17T05:28:13.356Z,10.30
2019-02-17T05:29:13.362Z,9.50
2019-02-17T05:30:13.333Z,9.80
2019-02-17T05:31:13.345Z,9.90
2019-02-17T05:32:13.320Z,10.30
2019-02-17T05:33:13.309Z,10.40
2019-02-17T05:34:13.301Z,10.80
2019-02-17T05:35:13.302Z,10.50
2019-02-17T05:36:13.304Z,10.60
2019-02-17T05:37:13.258Z,10.50
2019-02-17T05:38:13.257Z,10.30
2019-02-17T05:39:13.248Z,10.50
2019-02-17T05:40:13.229Z,10.10
2019-02-17T05:41:13.438Z,10.70
2019-02-17T05:42:13.210Z,10.60
2019-02-17T05:43:13.225Z,10.80
2019-02-17T05:44:13.195Z,10.80
2019-02-17T05:45:13.183Z,10.90
2019-02-17T05:46:13.205Z,10.00
2019-02-17T05:47:13.163Z,11.00
2019-02-17T05:48:13.146Z,11.00
2019-02-17T05:49:13.136Z,10.60
2019-02-17T05:50:13.127Z,10.80
2019-02-17T05:51:13.113Z,10.80
2019-02-17T05:52:13.128Z,11.00
2019-02-17T05:53:13.102Z,11.40
2019-02-17T05:54:13.090Z,11.10
2019-02-17T05:55:13.070Z,11.30
2019-02-17T05:56:13.071Z,11.10
2019-02-17T05:57:13.077Z,11.10
2019-02-17T05:58:13.072Z,11.40
2019-02-17T05:59:13.043Z,10.60
2019-02-17T06:00:13.022Z,11.70
2019-02-17T06:01:13.010Z,11.70
2019-02-17T06:02:12.999Z,11.40
2019-02-17T06:03:13.018Z,11.90
2019-02-17T06:04:12.987Z,11.80
2019-02-17T06:05:12.975Z,12.80
2019-02-17T06:06:14.911Z,12.90
2019-02-17T06:07:12.952Z,12.90
2019-02-17T06:08:12.934Z,13.00
2019-02-17T06:09:12.943Z,13.10
2019-02-17T06:10:12.920Z,12.20
2019-02-17T06:11:12.909Z,11.30
2019-02-17T06:12:12.901Z,11.10
2019-02-17T06:13:12.885Z,10.90
2019-02-17T06:14:12.889Z,11.10
2019-02-17T06:15:12.863Z,11.60
2019-02-17T06:16:12.876Z,11.30
2019-02-17T06:17:12.854Z,14.20
2019-02-17T06:18:12.842Z,13.30
2019-02-17T06:19:12.845Z,16.40
2019-02-17T06:20:12.813Z,15.60
2019-02-17T06:21:12.800Z,19.40
2019-02-17T06:22:12.792Z,22.50
2019-02-17T06:23:12.781Z,23.60
2019-02-17T06:24:12.797Z,18.70
2019-02-17T06:25:12.773Z,13.60
2019-02-17T06:26:12.752Z,17.60
2019-02-17T06:27:12.740Z,19.60
2019-02-17T06:28:12.734Z,20.30
2019-02-17T06:29:12.746Z,18.40
2019-02-17T06:30:12.714Z,16.60
2019-02-17T06:31:14.710Z,17.10
2019-02-17T06:32:12.687Z,13.60
2019-02-17T06:33:12.675Z,15.90
2019-02-17T06:34:12.680Z,13.40
2019-02-17T06:35:12.657Z,12.60
2019-02-17T06:36:12.657Z,12.80
2019-02-17T06:37:12.640Z,12.70
2019-02-17T06:38:12.629Z,12.50
2019-02-17T06:39:12.635Z,13.50
2019-02-17T06:40:12.601Z,15.10
2019-02-17T06:41:12.590Z,14.30
2019-02-17T06:42:12.606Z,14.60
2019-02-17T06:43:12.579Z,15.60
2019-02-17T06:44:12.579Z,14.40
2019-02-17T06:45:12.548Z,13.80
2019-02-17T06:46:12.566Z,13.30
2019-02-17T06:47:12.529Z,12.70
2019-02-17T06:48:12.551Z,14.30
2019-02-17T06:49:12.515Z,18.60
2019-02-17T06:50:12.504Z,34.20
2019-02-17T06:51:12.497Z,19.10
2019-02-17T06:52:12.477Z,16.80
2019-02-17T06:53:12.467Z,14.90
2019-02-17T06:54:12.476Z,14.70
2019-02-17T06:55:12.448Z,13.60
2019-02-17T06:56:12.440Z,12.70
2019-02-17T06:57:12.430Z,12.50
2019-02-17T06:58:12.414Z,13.30
2019-02-17T06:59:12.419Z,12.90
2019-02-17T07:00:12.399Z,13.20
2019-02-17T07:01:12.390Z,13.20
2019-02-17T07:02:12.381Z,13.50
2019-02-17T07:03:14.349Z,13.50
2019-02-17T07:04:12.374Z,12.90
2019-02-17T07:05:12.335Z,12.80
2019-02-17T07:06:12.347Z,12.80
2019-02-17T07:07:12.325Z,13.10
2019-02-17T07:08:12.316Z,12.30
2019-02-17T07:09:12.325Z,13.20
2019-02-17T07:10:12.291Z,12.90
2019-02-17T07:11:12.300Z,12.90
2019-02-17T07:12:12.284Z,13.10
2019-02-17T07:13:12.251Z,13.60
2019-02-17T07:14:12.248Z,12.80
2019-02-17T07:15:12.253Z,13.30
2019-02-17T07:16:12.270Z,12.70
2019-02-17T07:17:12.214Z,13.60
2019-02-17T07:18:12.201Z,13.80
2019-02-17T07:19:12.193Z,14.30
2019-02-17T07:20:12.204Z,14.70
2019-02-17T07:21:12.179Z,14.40
2019-02-17T07:22:12.171Z,13.60
2019-02-17T07:23:12.154Z,13.10
2019-02-17T07:24:12.140Z,13.40
2019-02-17T07:25:12.148Z,12.70
2019-02-17T07:26:12.139Z,13.50
2019-02-17T07:27:12.113Z,13.60
2019-02-17T07:28:12.153Z,13.60
2019-02-17T07:29:12.094Z,12.90
2019-02-17T07:30:12.103Z,12.80
2019-02-17T07:31:12.064Z,13.20
2019-02-17T07:32:12.060Z,13.30
2019-02-17T07:33:12.050Z,13.00
2019-02-17T07:34:12.045Z,13.00
2019-02-17T07:35:12.036Z,13.10
2019-02-17T07:36:12.032Z,12.80
2019-02-17T07:37:12.001Z,13.10
2019-02-17T07:38:11.988Z,13.60
2019-02-17T07:39:11.977Z,13.20
2019-02-17T07:40:11.976Z,13.10
2019-02-17T07:41:12.387Z,12.70
2019-02-17T07:42:11.953Z,13.10
2019-02-17T07:43:11.946Z,13.20
2019-02-17T07:44:11.929Z,13.20
2019-02-17T07:45:11.943Z,13.00
2019-02-17T07:46:11.911Z,13.00
2019-02-17T07:47:11.923Z,12.80
2019-02-17T07:48:11.884Z,13.20
2019-02-17T07:49:11.874Z,12.50
2019-02-17T07:50:11.871Z,13.60
2019-02-17T07:51:11.855Z,13.00
2019-02-17T07:52:11.889Z,13.60
2019-02-17T07:53:11.835Z,13.00
2019-02-17T07:54:11.823Z,13.60
2019-02-17T07:55:11.815Z,12.90
2019-02-17T07:56:11.802Z,14.20
2019-02-17T07:57:11.815Z,12.90
2019-02-17T07:58:11.779Z,13.20
2019-02-17T07:59:11.765Z,13.30
2019-02-17T08:00:11.763Z,13.10
2019-02-17T08:01:11.755Z,13.20
2019-02-17T08:02:11.733Z,13.40
2019-02-17T08:03:11.738Z,13.20
2019-02-17T08:04:11.735Z,13.30
2019-02-17T08:05:11.710Z,13.30
2019-02-17T08:06:11.696Z,14.50
2019-02-17T08:07:11.684Z,14.20
2019-02-17T08:08:11.685Z,14.10
2019-02-17T08:09:11.659Z,14.70
2019-02-17T08:10:11.648Z,14.20
2019-02-17T08:11:11.636Z,14.50
2019-02-17T08:12:11.636Z,14.00
2019-02-17T08:13:11.645Z,14.20
2019-02-17T08:14:11.620Z,14.20
2019-02-17T08:15:11.607Z,14.30
2019-02-17T08:16:11.581Z,13.90
2019-02-17T08:17:11.570Z,14.30
2019-02-17T08:18:11.598Z,13.90
2019-02-17T08:19:11.557Z,14.00
2019-02-17T08:20:11.538Z,14.50
2019-02-17T08:21:11.532Z,14.40
2019-02-17T08:22:11.521Z,14.10
2019-02-17T08:23:11.509Z,14.20
2019-02-17T08:24:11.535Z,14.60
2019-02-17T08:25:19.352Z,14.20
2019-02-17T08:26:12.485Z,14.30
2019-02-17T08:27:11.475Z,14.50
2019-02-17T08:28:11.455Z,14.60
2019-02-17T08:29:11.444Z,14.60
2019-02-17T08:30:11.455Z,14.00
2019-02-17T08:31:11.423Z,14.80
2019-02-17T08:32:11.417Z,14.60
2019-02-17T08:33:11.411Z,14.20
2019-02-17T08:34:11.396Z,14.30
2019-02-17T08:35:11.410Z,14.90
2019-02-17T08:36:11.378Z,14.40
2019-02-17T08:37:11.363Z,14.10
2019-02-17T08:38:11.359Z,14.40
2019-02-17T08:39:11.749Z,14.40
2019-02-17T08:40:11.335Z,14.60
2019-02-17T08:41:11.322Z,14.40
2019-02-17T08:42:11.304Z,13.80
2019-02-17T08:43:11.293Z,14.00
2019-02-17T08:44:11.347Z,14.10
2019-02-17T08:45:11.279Z,14.10
2019-02-17T08:46:11.268Z,14.10
2019-02-17T08:47:11.256Z,14.50
2019-02-17T08:48:11.238Z,13.60
2019-02-17T08:49:11.238Z,14.70
2019-02-17T08:50:11.241Z,14.30
2019-02-17T08:51:11.216Z,14.50
2019-02-17T08:52:11.197Z,13.80
2019-02-17T08:53:11.184Z,14.20
2019-02-17T08:54:11.172Z,14.10
2019-02-17T08:55:11.279Z,14.50
2019-02-17T08:56:11.159Z,14.90
2019-02-17T08:57:11.176Z,15.10
2019-02-17T08:58:11.149Z,14.70
2019-02-17T08:59:11.128Z,14.90
2019-02-17T09:00:11.129Z,14.90
2019-02-17T09:01:11.116Z,14.30
2019-02-17T09:02:11.138Z,14.70
2019-02-17T09:03:11.076Z,14.40
2019-02-17T09:04:11.163Z,14.80
2019-02-17T09:05:11.064Z,15.30
2019-02-17T09:06:11.071Z,15.20
2019-02-17T09:07:11.083Z,15.60
2019-02-17T09:08:11.033Z,16.00
2019-02-17T09:09:11.742Z,15.70
2019-02-17T09:10:11.011Z,15.40
2019-02-17T09:11:11.052Z,15.10
2019-02-17T09:12:11.008Z,15.10
2019-02-17T09:13:10.981Z,15.30
2019-02-17T09:14:10.959Z,15.30
2019-02-17T09:15:10.949Z,15.10
2019-02-17T09:16:10.975Z,14.80
2019-02-17T09:17:10.934Z,15.30
2019-02-17T09:18:10.944Z,15.70
2019-02-17T09:19:10.914Z,15.20
2019-02-17T09:20:11.007Z,15.00
2019-02-17T09:21:10.890Z,16.60
2019-02-17T09:22:10.902Z,16.10
2019-02-17T09:23:10.889Z,15.10
2019-02-17T09:24:10.851Z,14.60
2019-02-17T09:25:10.840Z,14.80
2019-02-17T09:26:11.590Z,14.60
2019-02-17T09:27:10.821Z,14.50
2019-02-17T09:28:10.822Z,15.00
2019-02-17T09:29:10.828Z,15.80
2019-02-17T09:30:10.825Z,15.80
2019-02-17T09:31:10.829Z,15.30
2019-02-17T09:32:16.370Z,15.70
2019-02-17T09:33:11.756Z,16.10
2019-02-17T09:34:10.766Z,16.00
2019-02-17T09:35:10.734Z,15.60
2019-02-17T09:36:10.746Z,15.40
2019-02-17T09:37:10.736Z,15.80
2019-02-17T09:38:10.709Z,15.60
2019-02-17T09:39:10.692Z,16.20
2019-02-17T09:40:10.689Z,15.70
2019-02-17T09:41:10.678Z,15.80
2019-02-17T09:42:10.700Z,16.00
2019-02-17T09:43:10.657Z,15.90
2019-02-17T09:44:10.641Z,16.00
2019-02-17T09:45:10.627Z,16.30
2019-02-17T09:46:10.634Z,16.00
2019-02-17T09:47:10.607Z,16.30
2019-02-17T09:48:10.648Z,16.00
2019-02-17T09:49:10.592Z,16.30
2019-02-17T09:50:10.589Z,16.90
2019-02-17T09:51:10.585Z,17.10
2019-02-17T09:52:10.551Z,16.70
2019-02-17T09:53:10.573Z,16.90
2019-02-17T09:54:10.840Z,16.70
2019-02-17T09:55:10.808Z,17.10
2019-02-17T09:56:10.706Z,16.70
2019-02-17T09:57:10.534Z,16.60
2019-02-17T09:58:10.533Z,16.00
2019-02-17T09:59:10.948Z,16.70
2019-02-17T10:00:10.490Z,16.40
2019-02-17T10:01:10.493Z,16.40
2019-02-17T10:02:10.486Z,16.60
2019-02-17T10:03:10.443Z,15.80
2019-02-17T10:04:10.461Z,16.40
2019-02-17T10:05:11.285Z,15.90
2019-02-17T10:06:10.404Z,16.10
2019-02-17T10:07:10.396Z,16.30
2019-02-17T10:08:10.395Z,17.40
2019-02-17T10:09:10.378Z,16.30
2019-02-17T10:10:10.405Z,16.20
2019-02-17T10:11:10.354Z,16.30
2019-02-17T10:12:10.349Z,15.80
2019-02-17T10:13:10.345Z,15.60
2019-02-17T10:14:10.330Z,15.70
2019-02-17T10:15:10.643Z,14.80
2019-02-17T10:16:10.319Z,15.30
2019-02-17T10:17:10.295Z,15.40
2019-02-17T10:18:10.288Z,15.40
2019-02-17T10:19:10.288Z,15.90
2019-02-17T10:20:10.264Z,14.80
2019-02-17T10:21:10.270Z,15.10
2019-02-17T10:22:10.266Z,15.40
2019-02-17T10:23:10.232Z,15.40
2019-02-17T10:24:10.237Z,15.10
2019-02-17T10:25:10.221Z,15.30
2019-02-17T10:26:10.231Z,16.50
2019-02-17T10:27:10.188Z,15.10
2019-02-17T10:28:10.175Z,16.40
2019-02-17T10:29:10.164Z,15.40
2019-02-17T10:30:10.152Z,15.20
2019-02-17T10:31:10.147Z,15.40
2019-02-17T10:32:10.332Z,15.30
2019-02-17T10:33:10.158Z,14.70
2019-02-17T10:34:10.115Z,15.20
2019-02-17T10:35:10.123Z,15.00
2019-02-17T10:36:10.087Z,15.30
2019-02-17T10:37:10.076Z,15.50
2019-02-17T10:38:10.101Z,16.20
2019-02-17T10:39:10.062Z,15.30
2019-02-17T10:40:10.052Z,15.80
2019-02-17T10:41:10.040Z,15.00
2019-02-17T10:42:10.029Z,14.90
2019-02-17T10:43:10.020Z,15.50
2019-02-17T10:44:10.028Z,15.60
2019-02-17T10:45:10.004Z,15.30
2019-02-17T10:46:10.035Z,15.50
2019-02-17T10:47:09.981Z,15.00
2019-02-17T10:48:09.961Z,15.40
2019-02-17T10:49:09.984Z,15.70
2019-02-17T10:50:09.942Z,15.60
2019-02-17T10:51:09.930Z,14.70
2019-02-17T10:52:09.927Z,15.20
2019-02-17T10:53:10.816Z,14.90
2019-02-17T10:54:09.906Z,14.60
2019-02-17T10:55:09.949Z,14.90
2019-02-17T10:56:09.887Z,15.30
2019-02-17T10:57:09.865Z,15.30
2019-02-17T10:58:09.861Z,15.10
2019-02-17T10:59:09.854Z,15.00
2019-02-17T11:00:09.864Z,14.80
2019-02-17T11:01:09.833Z,15.00
2019-02-17T11:02:09.826Z,14.70
2019-02-17T11:03:09.804Z,14.30
2019-02-17T11:04:09.801Z,15.20
2019-02-17T11:05:09.791Z,15.00
2019-02-17T11:06:09.807Z,14.90
2019-02-17T11:07:09.771Z,15.30
2019-02-17T11:08:09.804Z,15.90
2019-02-17T11:09:10.287Z,14.80
2019-02-17T11:10:09.736Z,14.90
2019-02-17T11:11:09.757Z,14.90
2019-02-17T11:12:09.714Z,15.20
2019-02-17T11:13:09.730Z,15.00
2019-02-17T11:14:09.702Z,14.80
2019-02-17T11:15:09.680Z,14.90
2019-02-17T11:16:09.675Z,14.60
2019-02-17T11:17:09.710Z,14.80
2019-02-17T11:18:09.684Z,16.00
2019-02-17T11:19:09.648Z,15.20
2019-02-17T11:20:09.625Z,14.80
2019-02-17T11:21:09.613Z,15.30
2019-02-17T11:22:09.622Z,15.20
2019-02-17T11:23:09.592Z,15.50
2019-02-17T11:24:09.618Z,15.10
2019-02-17T11:25:10.575Z,15.20
2019-02-17T11:26:09.571Z,14.60
2019-02-17T11:27:09.577Z,14.80
2019-02-17T11:28:09.569Z,14.30
2019-02-17T11:29:09.535Z,14.70
2019-02-17T11:30:09.532Z,14.40
2019-02-17T11:31:09.524Z,14.00
2019-02-17T11:32:09.522Z,14.30
2019-02-17T11:33:09.509Z,15.00
2019-02-17T11:34:09.479Z,15.50
2019-02-17T11:35:09.504Z,14.10
2019-02-17T11:36:09.495Z,13.90
2019-02-17T11:37:09.453Z,14.00
2019-02-17T11:38:09.469Z,14.30
2019-02-17T11:39:10.307Z,13.90
2019-02-17T11:40:09.418Z,14.10
2019-02-17T11:41:09.408Z,14.10
2019-02-17T11:42:09.473Z,14.10
2019-02-17T11:43:09.386Z,14.20
2019-02-17T11:44:09.410Z,14.30
2019-02-17T11:45:09.371Z,13.90
2019-02-17T11:46:09.357Z,14.10
2019-02-17T11:47:09.373Z,13.90
2019-02-17T11:48:09.352Z,14.10
2019-02-17T11:49:09.328Z,14.10
2019-02-17T11:50:09.331Z,13.90
2019-02-17T11:51:09.315Z,13.40
2019-02-17T11:52:10.325Z,13.80
2019-02-17T11:53:09.286Z,14.30
2019-02-17T11:54:09.366Z,14.20
2019-02-17T11:55:09.262Z,14.20
2019-02-17T11:56:09.262Z,14.20
2019-02-17T11:57:09.246Z,14.00
2019-02-17T11:58:09.253Z,14.70
2019-02-17T11:59:09.302Z,13.80
2019-02-17T12:00:09.209Z,14.40
2019-02-17T12:01:09.222Z,13.80
2019-02-17T12:02:09.203Z,13.90
2019-02-17T12:03:09.209Z,13.80
2019-02-17T12:04:09.172Z,13.80
2019-02-17T12:05:09.176Z,13.50
2019-02-17T12:06:09.149Z,13.90
2019-02-17T12:07:09.139Z,13.90
2019-02-17T12:08:09.157Z,14.20
2019-02-17T12:09:09.127Z,13.40
2019-02-17T12:10:09.112Z,14.00
2019-02-17T12:11:09.109Z,13.80
2019-02-17T12:12:09.085Z,14.00
2019-02-17T12:13:09.122Z,14.30
2019-02-17T12:14:09.074Z,14.30
2019-02-17T12:15:09.076Z,14.70
2019-02-17T12:16:09.053Z,14.30
2019-02-17T12:17:09.317Z,14.30
2019-02-17T12:18:09.062Z,13.90
2019-02-17T12:19:09.049Z,14.30
2019-02-17T12:20:09.020Z,14.30
2019-02-17T12:21:09.059Z,15.10
2019-02-17T12:22:08.990Z,14.60
2019-02-17T12:23:09.515Z,14.60
2019-02-17T12:24:08.970Z,15.00
2019-02-17T12:25:08.958Z,14.90
2019-02-17T12:26:08.950Z,14.20
2019-02-17T12:27:08.981Z,14.70
2019-02-17T12:28:08.973Z,15.00
2019-02-17T12:29:08.921Z,15.20
2019-02-17T12:30:08.933Z,15.10
2019-02-17T12:31:08.910Z,15.00
2019-02-17T12:32:08.891Z,14.90
2019-02-17T12:33:18.239Z,14.30
2019-02-17T12:34:09.880Z,14.20
2019-02-17T12:35:08.863Z,14.50
2019-02-17T12:36:08.839Z,13.80
2019-02-17T12:37:08.831Z,14.60
2019-02-17T12:38:08.871Z,14.30
2019-02-17T12:39:08.845Z,14.30
2019-02-17T12:40:08.805Z,14.20
2019-02-17T12:41:08.801Z,14.90
2019-02-17T12:42:08.786Z,16.40
2019-02-17T12:43:08.776Z,15.10
2019-02-17T12:44:08.785Z,14.20
2019-02-17T12:45:08.756Z,14.90
2019-02-17T12:46:08.739Z,14.50
2019-02-17T12:47:08.734Z,14.90
2019-02-17T12:48:08.723Z,14.20
2019-02-17T12:49:08.713Z,14.30
2019-02-17T12:50:08.809Z,14.80
2019-02-17T12:51:08.689Z,14.20
2019-02-17T12:52:08.682Z,15.60
2019-02-17T12:53:08.673Z,14.20
2019-02-17T12:54:08.663Z,14.50
2019-02-17T12:55:08.706Z,14.40
2019-02-17T12:56:08.648Z,14.70